Time,TemperatureF,DewpointF,PressureIn,WindDirection,WindDirectionDegrees,WindSpeedMPH,WindSpeedGustMPH,Humidity,HourlyPrecipIn,Conditions,Clouds,dailyrainin,SolarRadiationWatts/m^2,SoftwareType,DateUTC
2013-07-24 00:24:00,66.0,35.0,-100.00,ENE,75,4.0,7.0,32,0.00,,,0.00,1.000000,,2013-07-24 06:24:00,
2013-07-24 00:34:00,66.0,35.0,-100.00,ENE,75,4.0,7.0,32,0.00,,,0.00,1.000000,,2013-07-24 06:34:00,
2013-07-24 00:43:00,66.0,35.0,-100.00,ENE,75,4.0,7.0,32,0.00,,,0.00,1.000000,,2013-07-24 06:43:00,
2013-07-24 00:53:00,66.0,35.0,-100.00,ENE,75,4.0,7.0,32,0.00,,,0.00,1.000000,,2013-07-24 06:53:00,
2013-07-24 01:22:00,68.0,35.0,-100.00,East,100,5.0,14.0,29,0.00,,,0.00,1.000000,,2013-07-24 07:22:00,
2013-07-24 01:32:00,68.0,35.0,-100.00,East,100,5.0,14.0,29,0.00,,,0.00,1.000000,,2013-07-24 07:32:00,
2013-07-24 01:43:00,68.0,35.0,-100.00,East,100,5.0,14.0,29,0.00,,,0.00,1.000000,,2013-07-24 07:43:00,
2013-07-24 01:52:00,68.0,35.0,-100.00,East,100,5.0,14.0,29,0.00,,,0.00,1.000000,,2013-07-24 07:52:00,
2013-07-24 02:22:00,64.0,34.0,-100.00,NNE,31,3.0,8.0,32,0.00,,,0.00,1.000000,,2013-07-24 08:22:00,
2013-07-24 02:32:00,64.0,34.0,-100.00,NNE,31,3.0,8.0,32,0.00,,,0.00,1.000000,,2013-07-24 08:32:00,
2013-07-24 02:42:00,64.0,34.0,-100.00,NNE,31,3.0,8.0,32,0.00,,,0.00,1.000000,,2013-07-24 08:42:00,
2013-07-24 02:52:00,64.0,34.0,-100.00,NNE,31,3.0,8.0,32,0.00,,,0.00,1.000000,,2013-07-24 08:52:00,
2013-07-24 03:22:00,60.0,36.0,-100.00,SSW,201,0.0,5.0,40,0.00,,,0.00,1.000000,,2013-07-24 09:22:00,
2013-07-24 03:32:00,60.0,36.0,-100.00,SSW,201,0.0,5.0,40,0.00,,,0.00,1.000000,,2013-07-24 09:32:00,
2013-07-24 03:43:00,60.0,36.0,-100.00,SSW,201,0.0,5.0,40,0.00,,,0.00,1.000000,,2013-07-24 09:43:00,
2013-07-24 03:53:00,60.0,36.0,-100.00,SSW,201,0.0,5.0,40,0.00,,,0.00,1.000000,,2013-07-24 09:53:00,
2013-07-24 04:22:00,60.0,35.0,-100.00,WNW,300,1.0,4.0,39,0.00,,,0.00,1.000000,,2013-07-24 10:22:00,
2013-07-24 04:33:00,60.0,35.0,-100.00,WNW,300,1.0,4.0,39,0.00,,,0.00,1.000000,,2013-07-24 10:33:00,
2013-07-24 04:43:00,60.0,35.0,-100.00,WNW,300,1.0,4.0,39,0.00,,,0.00,1.000000,,2013-07-24 10:43:00,
2013-07-24 04:53:00,60.0,35.0,-100.00,WNW,300,1.0,4.0,39,0.00,,,0.00,1.000000,,2013-07-24 10:53:00,
2013-07-24 05:52:00,57.0,36.0,-100.00,South,169,0.0,3.0,45,0.00,,,0.00,1.000000,,2013-07-24 11:52:00,
2013-07-24 06:32:00,57.0,36.0,-100.00,ESE,104,2.0,2.0,46,0.00,,,0.00,1.000000,,2013-07-24 12:32:00,
2013-07-24 06:42:00,57.0,36.0,-100.00,ESE,104,2.0,2.0,46,0.00,,,0.00,1.000000,,2013-07-24 12:42:00,
2013-07-24 06:52:00,57.0,36.0,-100.00,ESE,104,2.0,2.0,46,0.00,,,0.00,1.000000,,2013-07-24 12:52:00,
2013-07-24 07:32:00,58.0,38.0,-100.00,NE,47,1.0,6.0,47,0.00,,,0.00,4.000000,,2013-07-24 13:32:00,
2013-07-24 07:43:00,58.0,38.0,-100.00,NE,47,1.0,6.0,47,0.00,,,0.00,4.000000,,2013-07-24 13:43:00,
2013-07-24 07:53:00,58.0,38.0,-100.00,NE,47,1.0,6.0,47,0.00,,,0.00,4.000000,,2013-07-24 13:53:00,
2013-07-24 07:54:00,63.0,40.0,-100.00,ENE,65,4.0,6.0,42,0.00,,,0.00,26.000000,,2013-07-24 13:54:00,
2013-07-24 08:22:00,63.0,40.0,-100.00,ENE,65,4.0,6.0,42,0.00,,,0.00,26.000000,,2013-07-24 14:22:00,
2013-07-24 08:32:00,63.0,40.0,-100.00,ENE,65,4.0,6.0,42,0.00,,,0.00,26.000000,,2013-07-24 14:32:00,
2013-07-24 08:43:00,63.0,40.0,-100.00,ENE,65,4.0,6.0,42,0.00,,,0.00,26.000000,,2013-07-24 14:43:00,
2013-07-24 09:22:00,66.0,41.0,-100.00,ENE,66,7.0,12.0,40,0.00,,,0.00,53.000000,,2013-07-24 15:22:00,
2013-07-24 09:33:00,66.0,41.0,-100.00,ENE,66,7.0,12.0,40,0.00,,,0.00,53.000000,,2013-07-24 15:33:00,
2013-07-24 09:43:00,66.0,41.0,-100.00,ENE,66,7.0,12.0,40,0.00,,,0.00,53.000000,,2013-07-24 15:43:00,
2013-07-24 09:52:00,66.0,41.0,-100.00,ENE,66,7.0,12.0,40,0.00,,,0.00,53.000000,,2013-07-24 15:52:00,
2013-07-24 10:22:00,65.0,44.0,-100.00,ESE,111,4.0,13.0,46,0.00,,,0.00,70.000000,,2013-07-24 16:22:00,
2013-07-24 10:32:00,65.0,44.0,-100.00,ESE,111,4.0,13.0,46,0.00,,,0.00,70.000000,,2013-07-24 16:32:00,
2013-07-24 10:43:00,65.0,44.0,-100.00,ESE,111,4.0,13.0,46,0.00,,,0.00,70.000000,,2013-07-24 16:43:00,
2013-07-24 10:53:00,65.0,44.0,-100.00,ESE,111,4.0,13.0,46,0.00,,,0.00,70.000000,,2013-07-24 16:53:00,
2013-07-24 11:22:00,61.0,48.0,-100.00,East,90,3.0,7.0,62,0.00,,,0.00,83.000000,,2013-07-24 17:22:00,
2013-07-24 11:33:00,61.0,48.0,-100.00,East,90,3.0,7.0,62,0.00,,,0.00,83.000000,,2013-07-24 17:33:00,
2013-07-24 11:43:00,61.0,48.0,-100.00,East,90,3.0,7.0,62,0.00,,,0.00,83.000000,,2013-07-24 17:43:00,
2013-07-24 11:53:00,61.0,48.0,-100.00,East,90,3.0,7.0,62,0.00,,,0.00,83.000000,,2013-07-24 17:53:00,
2013-07-24 12:22:00,59.0,50.0,-100.00,SSE,157,2.0,7.0,71,0.01,,,0.01,79.000000,,2013-07-24 18:22:00,
2013-07-24 12:33:00,59.0,50.0,-100.00,SSE,157,2.0,7.0,71,0.01,,,0.01,79.000000,,2013-07-24 18:33:00,
2013-07-24 12:43:00,59.0,50.0,-100.00,SSE,157,2.0,7.0,71,0.01,,,0.01,79.000000,,2013-07-24 18:43:00,
2013-07-24 12:52:00,59.0,50.0,-100.00,SSE,157,2.0,7.0,71,0.01,,,0.01,79.000000,,2013-07-24 18:52:00,
2013-07-24 14:23:00,69.0,46.0,-100.00,East,92,4.0,7.0,43,-99.99,,,-99.99,617.000000,,2013-07-24 20:23:00,
2013-07-24 14:32:00,69.0,46.0,-100.00,East,92,4.0,7.0,43,-99.99,,,-99.99,617.000000,,2013-07-24 20:32:00,
2013-07-24 14:43:00,69.0,46.0,-100.00,East,92,4.0,7.0,43,-99.99,,,-99.99,617.000000,,2013-07-24 20:43:00,
2013-07-24 14:52:00,69.0,46.0,-100.00,East,92,4.0,7.0,43,-99.99,,,-99.99,617.000000,,2013-07-24 20:52:00,
2013-07-24 15:22:00,73.0,44.0,-100.00,ENE,57,6.0,13.0,35,0.00,,,0.04,624.000000,,2013-07-24 21:22:00,
2013-07-24 15:32:00,73.0,44.0,-100.00,ENE,57,6.0,13.0,35,0.00,,,0.04,624.000000,,2013-07-24 21:32:00,
2013-07-24 15:43:00,73.0,44.0,-100.00,ENE,57,6.0,13.0,35,0.00,,,0.04,624.000000,,2013-07-24 21:43:00,
2013-07-24 15:52:00,73.0,44.0,-100.00,ENE,57,6.0,13.0,35,0.00,,,0.04,624.000000,,2013-07-24 21:52:00,
2013-07-24 16:22:00,77.0,42.0,-100.00,NE,52,4.0,11.0,29,0.00,,,0.04,700.000000,,2013-07-24 22:22:00,
2013-07-24 16:32:00,77.0,42.0,-100.00,NE,52,4.0,11.0,29,0.00,,,0.04,700.000000,,2013-07-24 22:32:00,
2013-07-24 16:43:00,77.0,42.0,-100.00,NE,52,4.0,11.0,29,0.00,,,0.04,700.000000,,2013-07-24 22:43:00,
2013-07-24 16:53:00,77.0,42.0,-100.00,NE,52,4.0,11.0,29,0.00,,,0.04,700.000000,,2013-07-24 22:53:00,
2013-07-24 17:22:00,78.0,44.0,-100.00,NNE,14,5.0,12.0,30,0.00,,,0.04,689.000000,,2013-07-24 23:22:00,
2013-07-24 17:32:00,78.0,44.0,-100.00,NNE,14,5.0,12.0,30,0.00,,,0.04,689.000000,,2013-07-24 23:32:00,
2013-07-24 17:43:00,78.0,44.0,-100.00,NNE,14,5.0,12.0,30,0.00,,,0.04,689.000000,,2013-07-24 23:43:00,
2013-07-24 17:52:00,78.0,44.0,-100.00,NNE,14,5.0,12.0,30,0.00,,,0.04,689.000000,,2013-07-24 23:52:00,
2013-07-24 18:22:00,78.0,41.0,-100.00,North,349,3.0,8.0,27,0.00,,,0.04,486.000000,,2013-07-25 00:22:00,
2013-07-24 18:33:00,78.0,41.0,-100.00,North,349,3.0,8.0,27,0.00,,,0.04,486.000000,,2013-07-25 00:33:00,
2013-07-24 18:43:00,78.0,41.0,-100.00,North,349,3.0,8.0,27,0.00,,,0.04,486.000000,,2013-07-25 00:43:00,
2013-07-24 18:52:00,78.0,41.0,-100.00,North,349,3.0,8.0,27,0.00,,,0.04,486.000000,,2013-07-25 00:52:00,
2013-07-24 19:22:00,75.0,42.0,-100.00,NW,312,3.0,7.0,31,0.00,,,0.04,262.000000,,2013-07-25 01:22:00,
2013-07-24 19:32:00,75.0,42.0,-100.00,NW,312,3.0,7.0,31,0.00,,,0.04,262.000000,,2013-07-25 01:32:00,
2013-07-24 19:43:00,75.0,42.0,-100.00,NW,312,3.0,7.0,31,0.00,,,0.04,262.000000,,2013-07-25 01:43:00,
2013-07-24 19:53:00,75.0,42.0,-100.00,NW,312,3.0,7.0,31,0.00,,,0.04,262.000000,,2013-07-25 01:53:00,
2013-07-24 20:22:00,71.0,40.0,-100.00,North,2,1.0,7.0,33,0.00,,,-99.99,100.000000,,2013-07-25 02:22:00,
2013-07-24 20:33:00,71.0,40.0,-100.00,North,2,1.0,7.0,33,0.00,,,-99.99,100.000000,,2013-07-25 02:33:00,
2013-07-24 20:43:00,71.0,40.0,-100.00,North,2,1.0,7.0,33,0.00,,,-99.99,100.000000,,2013-07-25 02:43:00,
2013-07-24 20:52:00,71.0,40.0,-100.00,North,2,1.0,7.0,33,0.00,,,-99.99,100.000000,,2013-07-25 02:52:00,
2013-07-24 21:24:00,66.0,43.0,-100.00,ENE,74,3.0,4.0,43,0.00,,,0.04,10.000000,,2013-07-25 03:24:00,
2013-07-24 21:37:00,66.0,43.0,-100.00,ENE,74,3.0,4.0,43,0.00,,,0.04,10.000000,,2013-07-25 03:37:00,
2013-07-24 21:44:00,66.0,43.0,-100.00,ENE,74,3.0,4.0,43,0.00,,,0.04,10.000000,,2013-07-25 03:44:00,
2013-07-24 21:52:00,66.0,43.0,-100.00,ENE,74,3.0,4.0,43,0.00,,,0.04,10.000000,,2013-07-25 03:52:00,
2013-07-24 22:22:00,62.0,43.0,-100.00,NE,42,2.0,5.0,49,0.00,,,-99.99,1.000000,,2013-07-25 04:22:00,
2013-07-24 22:32:00,62.0,43.0,-100.00,NE,42,2.0,5.0,49,0.00,,,-99.99,1.000000,,2013-07-25 04:32:00,
2013-07-24 22:43:00,62.0,43.0,-100.00,NE,42,2.0,5.0,49,0.00,,,-99.99,1.000000,,2013-07-25 04:43:00,
2013-07-24 22:53:00,62.0,43.0,-100.00,NE,42,2.0,5.0,49,0.00,,,-99.99,1.000000,,2013-07-25 04:53:00,
2013-07-24 23:22:00,60.0,42.0,-100.00,SW,214,1.0,6.0,52,0.00,,,0.04,1.000000,,2013-07-25 05:22:00,
2013-07-24 23:32:00,60.0,42.0,-100.00,SW,214,1.0,6.0,52,0.00,,,0.04,1.000000,,2013-07-25 05:32:00,
2013-07-24 23:43:00,60.0,42.0,-100.00,SW,214,1.0,6.0,52,0.00,,,0.04,1.000000,,2013-07-25 05:43:00,
2013-07-24 23:52:00,60.0,42.0,-100.00,SW,214,1.0,6.0,52,0.00,,,0.04,1.000000,,2013-07-25 05:52:00,